Terminal Aerodrome Forecast
Issued by NWS

Home | Current Version | Previous Version | Text Only | Print | Product List | Glossary On
Versions: 1 2 3 4 5 6 7 8 9 10 11 12
000
FTUS46 KLOX 190500
TAFWJF
TAF
KWJF 190532Z 1906/2006 25009KT P6SM BKN200
     FM191200 VRB03KT P6SM SCT200
     FM192000 25010KT P6SM SCT200
     FM192300 25018G25KT P6SM SCT200
     FM200500 25015KT P6SM SCT200=

USA.gov is the U.S. government's official web portal to all federal, state and local government web resources and services.